• Join FlightAware (Why Join?)
  • Login
  • US Flag 
12:43PM EDT


 

Airport Tracker/Info


-or-


 

Live Flight TrackerFlight Track Log ✈ N1735E ✈ 24-Feb-2014 ✈ KSRQ - KORL

Flight Track Log - Related Links

Times and Time Zones

All times are in EST time to prevent confusion due to time zone crossing. See the N1735E flight status page for this flight to view local times or setup timezone preferences in your user account.

Time Position Orientation Groundspeed Altitude Reporting Facility
EST Latitude Longitude Course Direction KTS MPH feet Rate Location/Type
03:05PM 27.4000 -82.5667 360° North 158 182 500  Level Tampa TRACON
03:06PM 27.4500 -82.5667 360° North 146 168 1,600 1,080 Climbing Tampa TRACON
03:07PM 27.4833 -82.5500 24° Northeast 157 181 2,500 900 Climbing Tampa TRACON
03:08PM 27.5000 -82.5167 61° Northeast 165 190 3,400 900 Climbing Tampa TRACON
03:09PM 27.5500 -82.4667 42° Northeast 163 188 4,500 780 Climbing Tampa TRACON
03:10PM 27.5833 -82.4333 42° Northeast 175 201 5,100 240 Climbing Tampa TRACON
03:11PM 27.6167 -82.4000 42° Northeast 207 238 5,000 -60 Descending Tampa TRACON
03:12PM 27.6667 -82.3667 31° Northeast 199 229 5,000 60 Level Tampa TRACON
03:13PM 27.7167 -82.3167 42° Northeast 200 230 5,200 420 Climbing Tampa TRACON
03:14PM 27.7667 -82.3000 16° North 176 203 5,900 660 Climbing Tampa TRACON
03:15PM 27.8000 -82.2667 41° Northeast 176 203 6,400 480 Climbing Tampa TRACON
03:16PM 27.8500 -82.2333 31° Northeast 182 209 6,900 300 Climbing Tampa TRACON
03:17PM 27.8833 -82.2000 41° Northeast 184 212 7,100  Climbing Tampa TRACON
03:18PM 27.9333 -82.1667 30° Northeast 198 228 7,000 -60 Descending Tampa TRACON
03:19PM 27.9833 -82.1333 30° Northeast 194 223 7,000  Level Tampa TRACON
03:20PM 28.0333 -82.1167 16° North 191 220 7,100  Climbing Tampa TRACON
03:21PM 28.0833 -82.0833 30° Northeast 198 228 7,000  Descending Tampa TRACON
03:23PM 28.1667 -82.0167 35° Northeast 198 228 7,100  Climbing Orlando TRACON
03:24PM 28.2167 -81.9833 30° Northeast 202 232 7,100 -60 Level Orlando TRACON
03:25PM 28.2500 -81.9500 41° Northeast 214 246 7,000 -180 Descending Orlando TRACON
03:26PM 28.2833 -81.8833 60° Northeast 216 249 6,800 -420 Descending Orlando TRACON
03:27PM 28.3167 -81.8333 53° Northeast 225 259 6,200 -540 Descending Orlando TRACON
03:28PM 28.3500 -81.7667 60° Northeast 221 254 5,800 -480 Descending Orlando TRACON
03:29PM 28.3667 -81.7000 74° East 220 253 5,300 -480 Descending Orlando TRACON
03:34PM 28.4351 -81.3615 74° East 193 222 3,000 -420 Descending FlightAware ADS-B (KMCO)
03:34PM 28.4368 -81.3405 85° East 192 221 3,000  Level FlightAware ADS-B (KMCO)
03:35PM 28.4389 -81.3132 85° East 193 222 3,000  Level FlightAware ADS-B (KMCO)
03:37PM 28.4478 -81.2043 85° East 193 222 3,000  Level FlightAware ADS-B (KMCO)
03:37PM 28.4497 -81.1840 84° East 192 221 3,000  Level FlightAware ADS-B (KMCO)
03:37PM 28.4525 -81.1735 73° East 192 221 3,000 -540 Level FlightAware ADS-B (KMCO)
03:40PM 28.5414 -81.1414 18° North 181 208 1,700 -420 Descending FlightAware ADS-B (KMCO)
03:43PM 28.5613 -81.2886 279° West 134 154 700 -360 Descending FlightAware ADS-B (KMCO)
03:44PM 28.5500 -81.3167 279° West 106 122 300 -540 Descending Orlando TRACON
03:46PM 28.5333 -81.3167 247° West  Level FlightAware Approximate